sensor_id;sensor_type;location;lat;lon;timestamp;temperature;humidity
51327;DHT22;37412;52.836;6.362;2023-03-01T17:37:59;4.10;99.90
51327;DHT22;37412;52.836;6.362;2023-03-01T17:40:45;4.10;99.90
51327;DHT22;37412;52.836;6.362;2023-03-01T17:43:31;4.40;99.90
51327;DHT22;37412;52.836;6.362;2023-03-01T17:46:19;4.60;99.90
51327;DHT22;37412;52.836;6.362;2023-03-01T17:49:05;4.80;99.90
51327;DHT22;37412;52.836;6.362;2023-03-01T17:51:51;4.90;99.90
51327;DHT22;37412;52.836;6.362;2023-03-01T17:54:37;4.90;99.90
51327;DHT22;37412;52.836;6.362;2023-03-01T17:57:23;5.00;99.90
51327;DHT22;37412;52.836;6.362;2023-03-01T18:00:11;5.10;99.90
51327;DHT22;37412;52.836;6.362;2023-03-01T18:02:57;5.10;99.90
51327;DHT22;37412;52.836;6.362;2023-03-01T18:05:43;5.10;99.90
51327;DHT22;37412;52.836;6.362;2023-03-01T18:08:29;5.10;99.90
51327;DHT22;37412;52.836;6.362;2023-03-01T18:11:18;5.10;99.90
51327;DHT22;37412;52.836;6.362;2023-03-01T18:14:05;5.20;99.90
51327;DHT22;37412;52.836;6.362;2023-03-01T18:16:51;5.10;99.90
51327;DHT22;37412;52.836;6.362;2023-03-01T18:19:38;5.00;99.90
51327;DHT22;37412;52.836;6.362;2023-03-01T18:22:25;5.00;99.90
51327;DHT22;37412;52.836;6.362;2023-03-01T18:25:12;5.00;99.90
51327;DHT22;37412;52.836;6.362;2023-03-01T18:27:58;4.90;99.90
51327;DHT22;37412;52.836;6.362;2023-03-01T18:30:44;4.90;99.90
51327;DHT22;37412;52.836;6.362;2023-03-01T18:33:30;4.90;99.90
51327;DHT22;37412;52.836;6.362;2023-03-01T18:36:23;4.90;99.90
51327;DHT22;37412;52.836;6.362;2023-03-01T18:39:09;4.90;99.90
51327;DHT22;37412;52.836;6.362;2023-03-01T18:41:56;4.80;99.90
51327;DHT22;37412;52.836;6.362;2023-03-01T18:44:42;4.80;99.90
51327;DHT22;37412;52.836;6.362;2023-03-01T18:47:28;4.70;99.90
51327;DHT22;37412;52.836;6.362;2023-03-01T18:50:14;4.70;99.90
51327;DHT22;37412;52.836;6.362;2023-03-01T18:53:00;4.60;99.90
51327;DHT22;37412;52.836;6.362;2023-03-01T18:55:46;4.60;99.90
51327;DHT22;37412;52.836;6.362;2023-03-01T18:58:32;4.50;99.90
51327;DHT22;37412;52.836;6.362;2023-03-01T19:01:23;4.50;99.90
51327;DHT22;37412;52.836;6.362;2023-03-01T19:04:10;4.40;99.90
51327;DHT22;37412;52.836;6.362;2023-03-01T19:06:56;4.40;99.90
51327;DHT22;37412;52.836;6.362;2023-03-01T19:09:42;4.30;99.90
51327;DHT22;37412;52.836;6.362;2023-03-01T19:12:29;4.30;99.90
51327;DHT22;37412;52.836;6.362;2023-03-01T19:15:15;4.30;99.90
51327;DHT22;37412;52.836;6.362;2023-03-01T19:18:01;4.30;99.90
51327;DHT22;37412;52.836;6.362;2023-03-01T19:20:56;4.20;99.90
51327;DHT22;37412;52.836;6.362;2023-03-01T19:23:43;4.20;99.90
51327;DHT22;37412;52.836;6.362;2023-03-01T19:26:29;4.20;99.90
51327;DHT22;37412;52.836;6.362;2023-03-01T19:29:15;4.20;99.90
51327;DHT22;37412;52.836;6.362;2023-03-01T19:32:01;4.10;99.90
51327;DHT22;37412;52.836;6.362;2023-03-01T19:34:47;4.00;99.90
51327;DHT22;37412;52.836;6.362;2023-03-01T19:37:33;4.00;99.90
51327;DHT22;37412;52.836;6.362;2023-03-01T19:40:20;3.90;99.90
51327;DHT22;37412;52.836;6.362;2023-03-01T19:43:05;3.80;99.90
51327;DHT22;37412;52.836;6.362;2023-03-01T19:45:52;3.80;99.90
51327;DHT22;37412;52.836;6.362;2023-03-01T19:48:39;3.80;99.90
51327;DHT22;37412;52.836;6.362;2023-03-01T19:51:26;3.80;99.90
51327;DHT22;37412;52.836;6.362;2023-03-01T19:54:11;3.80;99.90
51327;DHT22;37412;52.836;6.362;2023-03-01T19:56:59;3.80;99.90
51327;DHT22;37412;52.836;6.362;2023-03-01T19:59:45;3.70;99.90
51327;DHT22;37412;52.836;6.362;2023-03-01T20:02:31;3.70;99.90
51327;DHT22;37412;52.836;6.362;2023-03-01T20:05:17;3.70;99.90
51327;DHT22;37412;52.836;6.362;2023-03-01T20:08:04;3.60;99.90
51327;DHT22;37412;52.836;6.362;2023-03-01T20:10:50;3.60;99.90
51327;DHT22;37412;52.836;6.362;2023-03-01T20:13:36;3.50;99.90
51327;DHT22;37412;52.836;6.362;2023-03-01T20:16:22;3.50;99.90
51327;DHT22;37412;52.836;6.362;2023-03-01T20:19:11;3.50;99.90
51327;DHT22;37412;52.836;6.362;2023-03-01T20:21:57;3.40;99.90
51327;DHT22;37412;52.836;6.362;2023-03-01T20:24:43;3.30;99.90
51327;DHT22;37412;52.836;6.362;2023-03-01T20:27:29;3.30;99.90
51327;DHT22;37412;52.836;6.362;2023-03-01T20:30:15;3.20;99.90
51327;DHT22;37412;52.836;6.362;2023-03-01T20:33:01;3.20;99.90
51327;DHT22;37412;52.836;6.362;2023-03-01T20:35:47;3.10;99.90
51327;DHT22;37412;52.836;6.362;2023-03-01T20:38:33;3.00;99.90
51327;DHT22;37412;52.836;6.362;2023-03-01T20:41:20;3.00;99.90
51327;DHT22;37412;52.836;6.362;2023-03-01T20:44:06;3.00;99.90
51327;DHT22;37412;52.836;6.362;2023-03-01T20:46:52;2.90;99.90
51327;DHT22;37412;52.836;6.362;2023-03-01T20:49:38;2.90;99.90
51327;DHT22;37412;52.836;6.362;2023-03-01T20:52:24;3.00;99.90
51327;DHT22;37412;52.836;6.362;2023-03-01T20:55:10;3.00;99.90
51327;DHT22;37412;52.836;6.362;2023-03-01T20:57:56;3.10;99.90
51327;DHT22;37412;52.836;6.362;2023-03-01T21:00:42;3.10;99.90
51327;DHT22;37412;52.836;6.362;2023-03-01T21:03:28;3.20;99.90
51327;DHT22;37412;52.836;6.362;2023-03-01T21:06:14;3.20;99.90
51327;DHT22;37412;52.836;6.362;2023-03-01T21:09:00;3.20;99.90
51327;DHT22;37412;52.836;6.362;2023-03-01T21:11:47;3.20;99.90
51327;DHT22;37412;52.836;6.362;2023-03-01T21:14:33;3.20;99.90
51327;DHT22;37412;52.836;6.362;2023-03-01T21:17:26;3.20;99.90
51327;DHT22;37412;52.836;6.362;2023-03-01T21:20:12;3.20;99.90
51327;DHT22;37412;52.836;6.362;2023-03-01T21:22:58;3.10;99.90
51327;DHT22;37412;52.836;6.362;2023-03-01T21:25:44;3.10;99.90
51327;DHT22;37412;52.836;6.362;2023-03-01T21:28:30;3.10;99.90
51327;DHT22;37412;52.836;6.362;2023-03-01T21:31:20;3.10;99.90
51327;DHT22;37412;52.836;6.362;2023-03-01T21:34:06;3.10;99.90
51327;DHT22;37412;52.836;6.362;2023-03-01T21:36:52;3.10;99.90
51327;DHT22;37412;52.836;6.362;2023-03-01T21:39:38;3.10;99.90
51327;DHT22;37412;52.836;6.362;2023-03-01T21:42:24;3.10;99.90
51327;DHT22;37412;52.836;6.362;2023-03-01T21:45:10;3.10;99.90
51327;DHT22;37412;52.836;6.362;2023-03-01T21:47:56;3.10;99.90
51327;DHT22;37412;52.836;6.362;2023-03-01T21:50:42;3.10;99.90
51327;DHT22;37412;52.836;6.362;2023-03-01T21:53:29;3.20;99.90
51327;DHT22;37412;52.836;6.362;2023-03-01T21:56:19;3.20;99.90
51327;DHT22;37412;52.836;6.362;2023-03-01T21:59:16;3.20;99.90
51327;DHT22;37412;52.836;6.362;2023-03-01T22:02:02;3.30;99.90
51327;DHT22;37412;52.836;6.362;2023-03-01T22:04:50;3.30;99.90
51327;DHT22;37412;52.836;6.362;2023-03-01T22:07:36;3.20;99.90
51327;DHT22;37412;52.836;6.362;2023-03-01T22:10:22;3.30;99.90
51327;DHT22;37412;52.836;6.362;2023-03-01T22:13:11;3.30;99.90
51327;DHT22;37412;52.836;6.362;2023-03-01T22:15:58;3.30;99.90
51327;DHT22;37412;52.836;6.362;2023-03-01T22:18:44;3.30;99.90
51327;DHT22;37412;52.836;6.362;2023-03-01T22:21:31;3.30;99.90
51327;DHT22;37412;52.836;6.362;2023-03-01T22:24:17;3.30;99.90
51327;DHT22;37412;52.836;6.362;2023-03-01T22:27:03;3.30;99.90
51327;DHT22;37412;52.836;6.362;2023-03-01T22:29:49;3.40;99.90
51327;DHT22;37412;52.836;6.362;2023-03-01T22:32:35;3.40;99.90
51327;DHT22;37412;52.836;6.362;2023-03-01T22:35:21;3.40;99.90
51327;DHT22;37412;52.836;6.362;2023-03-01T22:38:07;3.40;99.90
51327;DHT22;37412;52.836;6.362;2023-03-01T22:41:00;3.40;99.90
51327;DHT22;37412;52.836;6.362;2023-03-01T22:43:46;3.50;99.90
51327;DHT22;37412;52.836;6.362;2023-03-01T22:46:32;3.50;99.90
51327;DHT22;37412;52.836;6.362;2023-03-01T22:49:18;3.40;99.90
51327;DHT22;37412;52.836;6.362;2023-03-01T22:52:04;3.40;99.90
51327;DHT22;37412;52.836;6.362;2023-03-01T22:54:52;3.50;99.90
51327;DHT22;37412;52.836;6.362;2023-03-01T22:57:38;3.50;99.90
51327;DHT22;37412;52.836;6.362;2023-03-01T23:00:24;3.50;99.90
51327;DHT22;37412;52.836;6.362;2023-03-01T23:03:10;3.50;99.90
51327;DHT22;37412;52.836;6.362;2023-03-01T23:05:56;3.40;99.90
51327;DHT22;37412;52.836;6.362;2023-03-01T23:08:42;3.50;99.90
51327;DHT22;37412;52.836;6.362;2023-03-01T23:11:28;3.50;99.90
51327;DHT22;37412;52.836;6.362;2023-03-01T23:14:14;3.50;99.90
51327;DHT22;37412;52.836;6.362;2023-03-01T23:17:01;3.50;99.90
51327;DHT22;37412;52.836;6.362;2023-03-01T23:19:47;3.50;99.90
51327;DHT22;37412;52.836;6.362;2023-03-01T23:22:33;3.50;99.90
51327;DHT22;37412;52.836;6.362;2023-03-01T23:25:18;3.50;99.90
51327;DHT22;37412;52.836;6.362;2023-03-01T23:28:04;3.50;99.90
51327;DHT22;37412;52.836;6.362;2023-03-01T23:31:00;3.50;99.90
51327;DHT22;37412;52.836;6.362;2023-03-01T23:33:49;3.50;99.90
51327;DHT22;37412;52.836;6.362;2023-03-01T23:36:35;3.40;99.90
51327;DHT22;37412;52.836;6.362;2023-03-01T23:39:29;3.40;99.90
51327;DHT22;37412;52.836;6.362;2023-03-01T23:42:16;3.40;99.90
51327;DHT22;37412;52.836;6.362;2023-03-01T23:45:02;3.40;99.90
51327;DHT22;37412;52.836;6.362;2023-03-01T23:47:48;3.40;99.90
51327;DHT22;37412;52.836;6.362;2023-03-01T23:50:34;3.40;99.90
51327;DHT22;37412;52.836;6.362;2023-03-01T23:53:26;3.30;99.90
51327;DHT22;37412;52.836;6.362;2023-03-01T23:56:12;3.30;99.90
51327;DHT22;37412;52.836;6.362;2023-03-01T23:58:59;3.30;99.90
